Time;durP1;ratioP1;P1;durP2;ratioP2;P2;SDS_P1;SDS_P2;PMS_P1;PMS_P2;Temp;Humidity;BMP_temperature;BMP_pressure;BME280_temperature;BME280_humidity;BME280_pressure;Samples;Min_cycle;Max_cycle;Signal;HPM_P1;HPM_P2
2023/01/22 00:00:10;;;;;;;17.27;9.57;;;;;;;-1.98;100.00;99856.25;5056348;28;20024;-84
2023/01/22 00:02:36;;;;;;;15.32;9.93;;;;;;;-1.67;100.00;99865.50;5046261;28;20732;-84
2023/01/22 00:05:02;;;;;;;15.35;9.13;;;;;;;-1.95;100.00;99842.91;5058834;28;20052;-84
2023/01/22 00:07:27;;;;;;;16.02;9.73;;;;;;;-1.88;100.00;99851.81;5057923;28;20028;-84
2023/01/22 00:09:52;;;;;;;17.67;10.10;;;;;;;-1.79;100.00;99844.91;5052163;28;20447;-83
2023/01/22 00:12:18;;;;;;;21.13;7.53;;;;;;;-1.92;100.00;99844.41;5031636;28;20042;-83
2023/01/22 00:14:43;;;;;;;11.73;7.80;;;;;;;-2.05;100.00;99836.88;5057171;28;20075;-82
2023/01/22 00:17:09;;;;;;;15.73;9.52;;;;;;;-2.07;100.00;99828.34;5046409;28;20131;-81
2023/01/22 00:19:34;;;;;;;18.27;11.07;;;;;;;-1.75;100.00;99831.34;5045347;28;20068;-82
2023/01/22 00:21:59;;;;;;;13.88;8.73;;;;;;;-1.77;100.00;99822.84;5067785;28;20029;-81
2023/01/22 00:24:25;;;;;;;14.85;8.85;;;;;;;-1.70;100.00;99834.38;5014754;28;20059;-82
2023/01/22 00:26:50;;;;;;;15.18;9.18;;;;;;;-1.19;99.51;99832.94;5041952;28;20064;-80
2023/01/22 00:29:16;;;;;;;17.42;9.35;;;;;;;-1.45;99.64;99835.47;5065354;28;20473;-82
2023/01/22 00:31:41;;;;;;;15.07;7.47;;;;;;;-1.81;99.85;99831.13;5051447;28;20040;-82
2023/01/22 00:34:07;;;;;;;15.77;9.88;;;;;;;-1.78;99.99;99841.31;5031019;28;20063;-81
2023/01/22 00:36:33;;;;;;;17.05;9.60;;;;;;;-1.52;100.00;99835.25;5051577;28;20064;-82
2023/01/22 00:38:58;;;;;;;18.15;9.50;;;;;;;-1.60;100.00;99844.78;5056190;28;20063;-82
2023/01/22 00:41:23;;;;;;;12.30;9.55;;;;;;;-1.95;100.00;99852.53;5056691;28;20491;-82
2023/01/22 00:43:49;;;;;;;19.58;10.43;;;;;;;-1.75;100.00;99846.25;5071713;28;20028;-82
2023/01/22 00:46:15;;;;;;;16.25;9.27;;;;;;;-1.66;100.00;99856.66;5070916;28;20096;-82
2023/01/22 00:48:44;;;;;;;13.48;8.38;;;;;;;-1.62;99.26;99851.97;5038300;28;20029;-82
2023/01/22 00:51:11;;;;;;;17.20;10.85;;;;;;;-1.58;100.00;99848.91;5052863;28;20021;-81
2023/01/22 00:53:40;;;;;;;18.30;10.90;;;;;;;-1.74;100.00;99843.50;5038161;28;20472;-82
2023/01/22 00:56:05;;;;;;;17.75;10.25;;;;;;;-1.72;100.00;99838.94;5048761;28;20032;-82
2023/01/22 00:58:31;;;;;;;17.92;10.93;;;;;;;-1.85;100.00;99845.47;5039044;28;20434;-81
2023/01/22 01:00:56;;;;;;;16.98;9.15;;;;;;;-1.64;100.00;99841.63;5062523;28;20370;-82
2023/01/22 01:03:31;;;;;;;20.08;11.70;;;;;;;-1.27;99.97;99840.72;5036465;28;20039;-82
2023/01/22 01:06:10;;;;;;;19.73;11.25;;;;;;;-1.34;99.79;99848.34;5034853;28;20049;-79
2023/01/22 01:08:41;;;;;;;19.02;10.65;;;;;;;-1.65;98.99;99847.84;5043794;28;20460;-79
2023/01/22 01:11:20;;;;;;;19.00;11.88;;;;;;;-1.55;100.00;99850.38;5029381;28;20027;-82
2023/01/22 01:13:46;;;;;;;23.05;10.60;;;;;;;-1.52;100.00;99843.09;5063465;28;20103;-82
2023/01/22 01:16:18;;;;;;;16.88;9.93;;;;;;;-1.54;100.00;99833.72;5037015;28;22039;-82
2023/01/22 01:18:44;;;;;;;17.27;11.00;;;;;;;-1.49;100.00;99839.34;5051290;28;20091;-82
2023/01/22 01:21:11;;;;;;;19.50;10.15;;;;;;;-1.78;100.00;99836.06;5063264;28;20027;-82
2023/01/22 01:23:36;;;;;;;20.20;11.15;;;;;;;-1.58;100.00;99843.69;5069975;28;20032;-82
2023/01/22 01:26:06;;;;;;;18.38;10.30;;;;;;;-1.86;100.00;99825.53;5055798;28;20037;-82
2023/01/22 01:28:34;;;;;;;20.80;10.77;;;;;;;-1.27;100.00;99838.09;5029871;28;20542;-81
2023/01/22 01:31:05;;;;;;;23.55;10.93;;;;;;;-1.66;100.00;99821.84;5057444;28;20108;-82
2023/01/22 01:33:30;;;;;;;22.30;11.45;;;;;;;-1.35;99.41;99828.34;5060852;28;20479;-82
2023/01/22 01:36:01;;;;;;;22.73;10.90;;;;;;;-1.49;99.49;99800.09;5057103;28;20043;-82
2023/01/22 01:38:27;;;;;;;20.27;11.45;;;;;;;-1.35;99.27;99817.06;5059113;28;20495;-82
2023/01/22 01:40:52;;;;;;;16.90;9.82;;;;;;;-1.51;98.60;99825.59;5051690;28;20021;-81
2023/01/22 01:43:17;;;;;;;17.58;10.32;;;;;;;-1.42;99.85;99826.50;5064495;28;20119;-82
2023/01/22 01:45:43;;;;;;;27.98;9.93;;;;;;;-1.81;99.26;99821.47;5048128;28;20032;-82
2023/01/22 01:48:23;;;;;;;16.02;10.32;;;;;;;-1.37;100.00;99819.84;5049068;28;20071;-81
2023/01/22 01:50:58;;;;;;;20.73;10.82;;;;;;;-1.52;100.00;99821.31;5082101;28;20027;-82
2023/01/22 01:53:24;;;;;;;15.82;8.80;;;;;;;-1.21;99.79;99830.47;5049797;28;20032;-81
2023/01/22 01:55:50;;;;;;;19.40;10.30;;;;;;;-1.07;99.53;99816.84;5071431;28;20505;-82
2023/01/22 01:58:20;;;;;;;16.35;10.13;;;;;;;-1.37;99.71;99819.00;5055029;28;20039;-82
2023/01/22 02:00:49;;;;;;;18.98;11.50;;;;;;;-1.41;100.00;99821.09;5066987;28;20405;-82
2023/01/22 02:03:15;;;;;;;17.52;10.45;;;;;;;-1.82;100.00;99811.19;5034527;28;20078;-82
2023/01/22 02:05:42;;;;;;;19.92;10.63;;;;;;;-1.47;99.97;99820.88;5027820;28;20041;-81
2023/01/22 02:08:08;;;;;;;18.05;10.25;;;;;;;-1.05;99.32;99811.47;5057523;28;20028;-79
2023/01/22 02:10:34;;;;;;;18.17;9.27;;;;;;;-0.97;98.08;99822.00;5064677;28;20048;-81
2023/01/22 02:13:06;;;;;;;17.30;9.95;;;;;;;-1.29;98.42;99824.34;5042158;28;20470;-81
2023/01/22 02:15:32;;;;;;;15.00;8.73;;;;;;;-1.45;97.98;99824.16;5054973;28;20331;-81
2023/01/22 02:17:57;;;;;;;19.17;9.65;;;;;;;-1.48;98.96;99827.06;5038572;28;20038;-81
2023/01/22 02:20:22;;;;;;;19.05;9.82;;;;;;;-1.31;98.52;99826.28;5038467;28;20044;-81
2023/01/22 02:22:48;;;;;;;12.73;7.95;;;;;;;-1.58;98.29;99825.38;5026221;28;20043;-82
2023/01/22 02:25:14;;;;;;;14.68;9.73;;;;;;;-1.28;98.97;99820.72;5050011;28;20123;-79
2023/01/22 02:27:40;;;;;;;13.68;8.23;;;;;;;-1.70;98.40;99821.28;5053052;28;20052;-82
2023/01/22 02:30:06;;;;;;;19.88;10.57;;;;;;;-1.46;98.63;99815.47;5042816;28;20553;-82
2023/01/22 02:32:31;;;;;;;16.80;8.43;;;;;;;-1.24;98.46;99829.94;5027999;28;20599;-82
2023/01/22 02:34:56;;;;;;;13.63;9.50;;;;;;;-1.66;99.69;99827.06;5030915;28;20128;-82
2023/01/22 02:37:22;;;;;;;14.77;9.52;;;;;;;-1.71;100.00;99822.28;5038150;28;20392;-82
2023/01/22 02:39:47;;;;;;;17.88;9.18;;;;;;;-1.46;99.59;99825.94;5074832;28;20119;-82
2023/01/22 02:42:13;;;;;;;16.48;9.38;;;;;;;-1.31;99.23;99828.91;5024049;28;20040;-82
2023/01/22 02:44:38;;;;;;;13.93;8.38;;;;;;;-1.14;97.64;99828.09;5041766;28;20025;-82
2023/01/22 02:47:04;;;;;;;13.70;8.70;;;;;;;-1.53;98.45;99832.78;5061271;28;20041;-82
2023/01/22 02:49:29;;;;;;;13.32;8.63;;;;;;;-0.98;98.55;99830.81;5057518;28;20115;-82
2023/01/22 02:51:54;;;;;;;14.75;9.60;;;;;;;-1.24;99.01;99825.53;5045442;28;20503;-82
2023/01/22 02:54:20;;;;;;;15.82;8.98;;;;;;;-1.40;99.13;99848.13;5039675;28;20028;-81
2023/01/22 02:56:45;;;;;;;14.90;8.65;;;;;;;-1.45;98.89;99830.22;5060839;28;20369;-82
2023/01/22 02:59:11;;;;;;;12.82;7.82;;;;;;;-1.68;99.42;99828.97;5035175;28;20029;-82
2023/01/22 03:01:36;;;;;;;13.65;8.70;;;;;;;-1.19;99.87;99835.56;5038489;28;20029;-82
2023/01/22 03:04:09;;;;;;;13.70;8.57;;;;;;;-1.24;98.34;99833.38;5039809;28;20396;-82
2023/01/22 03:06:36;;;;;;;16.52;8.75;;;;;;;-0.97;97.02;99842.97;5037395;28;20074;-82
2023/01/22 03:09:01;;;;;;;10.85;8.55;;;;;;;-1.17;98.95;99820.50;5064530;28;20040;-82
2023/01/22 03:11:28;;;;;;;12.95;7.85;;;;;;;-1.24;98.91;99824.69;5057533;28;20043;-82
2023/01/22 03:22:08;;;;;;;11.43;8.65;;;;;;;-1.45;99.07;99819.75;5039832;28;20561;-81
2023/01/22 03:24:34;;;;;;;15.68;9.07;;;;;;;-1.49;100.00;99828.06;5041230;28;20071;-82
2023/01/22 03:26:59;;;;;;;14.57;7.72;;;;;;;-1.10;98.99;99818.94;5056832;28;20119;-82
2023/01/22 03:29:24;;;;;;;14.73;8.10;;;;;;;-1.18;98.09;99839.84;5050137;28;20040;-82
2023/01/22 03:31:50;;;;;;;13.23;8.63;;;;;;;-1.21;98.75;99835.72;5031434;28;20028;-82
2023/01/22 03:34:17;;;;;;;11.38;6.30;;;;;;;-0.59;97.79;99826.06;5040963;28;20477;-82
2023/01/22 03:36:43;;;;;;;14.82;8.63;;;;;;;-1.30;98.80;99820.91;5040176;28;20032;-82
2023/01/22 03:39:09;;;;;;;17.17;7.50;;;;;;;-1.10;99.83;99827.63;5041196;28;20468;-82
2023/01/22 03:41:35;;;;;;;10.98;6.90;;;;;;;-1.10;99.72;99832.03;5040680;28;20044;-82
2023/01/22 03:44:02;;;;;;;17.23;11.00;;;;;;;-1.31;98.79;99834.94;5057521;28;20389;-82
2023/01/22 03:46:28;;;;;;;10.63;7.65;;;;;;;-1.25;98.70;99834.38;5034629;28;20028;-82
2023/01/22 03:48:53;;;;;;;11.55;7.18;;;;;;;-1.11;99.58;99825.16;5064816;28;20040;-82
2023/01/22 03:51:19;;;;;;;10.65;6.95;;;;;;;-1.15;99.46;99844.75;5035794;28;20073;-82
2023/01/22 03:53:46;;;;;;;10.18;7.35;;;;;;;-1.34;98.73;99837.03;5062407;28;20383;-82
2023/01/22 03:56:19;;;;;;;12.63;7.90;;;;;;;-1.51;99.56;99833.44;5038243;28;20032;-82
2023/01/22 03:58:46;;;;;;;10.10;6.38;;;;;;;-1.59;100.00;99849.88;5035527;28;20029;-82
2023/01/22 04:01:14;;;;;;;11.85;7.55;;;;;;;-1.08;99.64;99846.63;5062508;28;20029;-82
2023/01/22 04:03:40;;;;;;;9.15;6.70;;;;;;;-1.07;99.71;99852.72;5065840;28;20025;-82
2023/01/22 04:06:07;;;;;;;9.25;7.25;;;;;;;-1.25;98.83;99849.25;5063083;28;20039;-82
2023/01/22 04:08:34;;;;;;;11.70;7.55;;;;;;;-1.25;99.19;99849.25;5060233;28;20028;-82
2023/01/22 04:11:01;;;;;;;11.40;7.72;;;;;;;-1.36;99.02;99841.59;5046998;28;20056;-82
2023/01/22 04:13:28;;;;;;;10.43;6.90;;;;;;;-1.34;100.00;99845.72;5061177;28;20488;-82
2023/01/22 04:15:53;;;;;;;9.90;6.63;;;;;;;-1.22;99.92;99846.34;5048295;28;20083;-81
2023/01/22 04:18:19;;;;;;;9.82;6.75;;;;;;;-0.88;99.23;99839.44;5067618;28;20434;-82
2023/01/22 04:20:47;;;;;;;8.00;6.72;;;;;;;-1.23;98.29;99821.13;5047500;28;20036;-80
2023/01/22 04:23:12;;;;;;;12.88;7.43;;;;;;;-1.66;99.99;99840.94;5065959;28;20029;-82
2023/01/22 04:25:39;;;;;;;11.70;6.90;;;;;;;-1.62;100.00;99846.75;5043797;28;20033;-81
2023/01/22 04:28:05;;;;;;;14.98;7.95;;;;;;;-1.33;99.71;99846.56;5068549;28;20024;-82
2023/01/22 04:30:31;;;;;;;10.65;6.75;;;;;;;-1.38;100.00;99820.81;5024392;28;20412;-81
2023/01/22 04:32:56;;;;;;;8.93;6.18;;;;;;;-1.67;100.00;99841.94;5046341;28;20042;-81
2023/01/22 04:35:21;;;;;;;10.88;7.10;;;;;;;-1.48;100.00;99827.06;5066277;28;20476;-82
2023/01/22 04:37:47;;;;;;;10.52;7.18;;;;;;;-1.30;100.00;99822.69;5048736;28;20412;-81
2023/01/22 04:40:12;;;;;;;9.90;6.88;;;;;;;-0.76;98.44;99825.94;5048006;28;20083;-82
2023/01/22 04:42:38;;;;;;;13.18;7.35;;;;;;;-1.19;98.06;99827.69;5048423;28;20479;-81
2023/01/22 04:45:04;;;;;;;9.68;6.88;;;;;;;-1.25;99.20;99829.13;5030440;28;20033;-82
2023/01/22 04:47:29;;;;;;;7.32;5.93;;;;;;;-1.21;97.86;99833.09;5070336;28;20028;-82
2023/01/22 04:49:54;;;;;;;9.40;6.63;;;;;;;-0.65;98.15;99835.34;5052989;28;20039;-81
2023/01/22 04:52:20;;;;;;;11.50;7.30;;;;;;;-0.95;97.53;99841.00;5047665;28;20040;-82
2023/01/22 04:54:45;;;;;;;8.18;6.18;;;;;;;-1.20;97.97;99831.31;5065728;28;20395;-81
2023/01/22 04:57:12;;;;;;;11.02;6.93;;;;;;;-1.05;97.83;99832.44;5034288;28;20071;-82
2023/01/22 04:59:37;;;;;;;12.73;7.40;;;;;;;-1.12;99.43;99834.81;5053301;28;20068;-82
2023/01/22 05:02:03;;;;;;;9.73;6.53;;;;;;;-1.40;98.96;99835.03;5046270;28;20061;-81
2023/01/22 05:04:28;;;;;;;13.07;7.35;;;;;;;-0.88;98.22;99816.69;5065219;28;20037;-81
2023/01/22 05:06:54;;;;;;;8.15;5.72;;;;;;;-0.85;97.82;99842.56;5069807;28;20016;-82
2023/01/22 05:09:20;;;;;;;6.40;5.28;;;;;;;-0.87;96.80;99848.94;5048995;28;20066;-82
2023/01/22 05:11:45;;;;;;;8.68;6.30;;;;;;;-1.00;98.37;99843.25;5062293;28;20025;-81
2023/01/22 05:14:11;;;;;;;8.90;6.45;;;;;;;-0.69;95.40;99841.06;5034167;28;20029;-82
2023/01/22 05:16:36;;;;;;;8.55;6.15;;;;;;;-0.71;95.90;99849.06;5064142;28;20044;-82
2023/01/22 05:19:02;;;;;;;8.05;5.28;;;;;;;-0.61;95.43;99841.94;5065743;28;20503;-82
2023/01/22 05:21:27;;;;;;;7.45;5.25;;;;;;;-0.78;96.94;99850.66;5030708;28;20029;-81
2023/01/22 05:23:52;;;;;;;6.18;5.43;;;;;;;-1.22;96.71;99846.34;5040102;28;20029;-82
2023/01/22 05:26:18;;;;;;;6.95;5.32;;;;;;;-0.63;97.45;99853.56;5045996;28;20039;-81
2023/01/22 05:28:43;;;;;;;7.75;5.10;;;;;;;-0.45;95.42;99870.91;5070797;28;20035;-82
2023/01/22 05:31:09;;;;;;;5.55;4.13;;;;;;;-0.61;94.62;99870.78;5027960;28;20028;-82
2023/01/22 05:33:35;;;;;;;7.43;5.18;;;;;;;-1.29;97.52;99866.25;5057696;28;20119;-82
2023/01/22 05:36:01;;;;;;;7.55;4.65;;;;;;;-0.72;96.86;99881.50;5032704;28;20097;-82
2023/01/22 05:38:29;;;;;;;6.50;3.97;;;;;;;-0.76;97.35;99880.16;5044651;28;20050;-82
2023/01/22 05:40:55;;;;;;;6.53;4.90;;;;;;;-0.99;96.62;99865.88;5059609;28;20024;-82
2023/01/22 05:43:21;;;;;;;5.97;4.25;;;;;;;-0.84;97.51;99874.84;5067068;28;20548;-81
2023/01/22 05:45:47;;;;;;;6.93;4.28;;;;;;;-0.81;96.97;99879.78;5031339;28;20025;-82
2023/01/22 05:48:12;;;;;;;4.75;4.00;;;;;;;-0.71;96.43;99887.56;5067385;28;20488;-82
2023/01/22 05:50:39;;;;;;;5.15;3.65;;;;;;;-0.55;95.92;99880.66;5044976;28;20043;-82
2023/01/22 05:53:05;;;;;;;5.70;4.47;;;;;;;-0.91;95.98;99879.03;5022343;28;20037;-82
2023/01/22 05:55:31;;;;;;;8.95;3.88;;;;;;;-0.62;94.77;99881.41;5057739;28;20056;-82
2023/01/22 05:57:57;;;;;;;4.38;3.60;;;;;;;-0.54;94.82;99881.47;5070546;28;20029;-82
2023/01/22 06:00:22;;;;;;;4.13;3.72;;;;;;;-0.44;94.47;99888.28;5040790;28;20109;-82
2023/01/22 06:02:48;;;;;;;3.80;3.20;;;;;;;-0.08;92.55;99874.09;5039197;28;20495;-82
2023/01/22 06:05:13;;;;;;;3.80;3.28;;;;;;;-0.86;93.35;99871.56;5046862;28;20027;-82
2023/01/22 06:07:39;;;;;;;4.05;3.03;;;;;;;0.08;93.61;99881.22;5032351;28;20032;-82
2023/01/22 06:10:04;;;;;;;4.25;3.00;;;;;;;0.17;92.98;99895.22;5029027;28;20147;-82
2023/01/22 06:12:30;;;;;;;3.80;3.22;;;;;;;-0.62;94.12;99877.00;5043985;28;20044;-82
2023/01/22 06:14:55;;;;;;;4.03;3.30;;;;;;;-0.32;93.89;99884.44;5052518;28;20033;-82
2023/01/22 06:17:21;;;;;;;4.47;3.70;;;;;;;-0.13;93.70;99892.09;5036387;28;20032;-82
2023/01/22 06:19:46;;;;;;;4.13;3.30;;;;;;;-0.80;93.97;99886.66;5056962;28;20435;-82
2023/01/22 06:22:12;;;;;;;5.10;3.13;;;;;;;-0.38;93.98;99885.06;5056382;28;20041;-82
2023/01/22 06:24:37;;;;;;;5.47;3.78;;;;;;;-0.76;94.66;99898.50;5054381;28;20028;-82
2023/01/22 06:27:03;;;;;;;4.38;3.47;;;;;;;-0.99;96.19;99892.06;5067812;28;20033;-82
2023/01/22 06:29:28;;;;;;;4.53;3.70;;;;;;;-1.04;96.52;99899.53;5055835;28;20384;-82
2023/01/22 06:31:55;;;;;;;4.63;3.63;;;;;;;-0.53;96.29;99891.81;5028227;28;20028;-82
2023/01/22 06:34:20;;;;;;;3.88;3.47;;;;;;;-0.55;94.45;99896.41;5059958;28;20480;-82
2023/01/22 06:36:46;;;;;;;5.05;3.55;;;;;;;-0.60;96.07;99905.69;5046547;28;20032;-82
2023/01/22 06:39:11;;;;;;;5.00;3.63;;;;;;;-0.46;95.28;99892.03;5056544;28;20509;-82
2023/01/22 06:41:36;;;;;;;4.65;3.42;;;;;;;-0.94;95.85;99898.50;5073546;28;20087;-82
2023/01/22 06:44:02;;;;;;;3.72;3.30;;;;;;;-0.66;95.42;99894.00;5039395;28;20072;-82
2023/01/22 06:46:27;;;;;;;4.18;3.35;;;;;;;-0.66;95.14;99898.44;5045536;28;20024;-82
2023/01/22 06:48:52;;;;;;;4.68;3.70;;;;;;;-1.28;97.01;99909.75;5044632;28;20396;-82
2023/01/22 06:51:18;;;;;;;4.82;4.00;;;;;;;-1.04;97.70;99900.38;5066437;28;20470;-82
2023/01/22 06:53:43;;;;;;;5.32;3.65;;;;;;;-1.14;97.40;99898.81;5032999;28;20396;-82
2023/01/22 06:56:09;;;;;;;5.05;3.60;;;;;;;-1.09;97.21;99912.28;5028484;28;20481;-82
2023/01/22 06:58:34;;;;;;;5.65;3.50;;;;;;;-0.86;97.36;99913.47;5074819;28;20039;-82
2023/01/22 07:01:01;;;;;;;4.72;3.70;;;;;;;-0.90;97.38;99912.13;5051567;28;20021;-82
2023/01/22 07:03:26;;;;;;;3.25;2.95;;;;;;;-1.19;97.06;99922.81;5029199;28;20048;-82
2023/01/22 07:05:57;;;;;;;6.25;4.15;;;;;;;-1.12;97.20;99928.28;5081167;28;20484;-82
2023/01/22 07:08:22;;;;;;;5.55;3.50;;;;;;;-0.93;95.71;99917.66;5045868;28;20369;-82
2023/01/22 07:10:47;;;;;;;5.40;3.80;;;;;;;-1.34;96.57;99924.28;5037928;28;20059;-82
2023/01/22 07:13:14;;;;;;;4.18;3.78;;;;;;;-1.09;98.04;99941.91;5059562;28;20067;-82
2023/01/22 07:15:40;;;;;;;4.72;4.15;;;;;;;-1.31;98.04;99931.03;5056861;28;20324;-82
2023/01/22 07:18:05;;;;;;;4.40;3.70;;;;;;;-1.02;99.28;99947.38;5042884;28;20030;-82
2023/01/22 07:20:31;;;;;;;4.60;3.90;;;;;;;-1.11;98.79;99935.16;5029102;28;20117;-82
2023/01/22 07:22:57;;;;;;;5.57;4.35;;;;;;;-1.41;98.56;99946.78;5074517;28;20457;-82
2023/01/22 07:25:24;;;;;;;5.80;4.53;;;;;;;-0.86;98.02;99947.53;5042762;28;20115;-82
2023/01/22 07:27:49;;;;;;;5.40;4.40;;;;;;;-1.30;98.71;99948.38;5052498;28;21117;-82
2023/01/22 07:30:15;;;;;;;4.85;3.53;;;;;;;-1.40;99.54;99942.38;5029828;28;20121;-82
2023/01/22 07:32:41;;;;;;;6.82;4.88;;;;;;;-1.02;98.95;99957.84;5055393;28;20028;-82
2023/01/22 07:35:06;;;;;;;6.20;4.57;;;;;;;-1.04;97.65;99949.31;5031255;28;20043;-82
2023/01/22 07:37:32;;;;;;;7.57;4.65;;;;;;;-1.15;98.00;99946.91;5050773;28;20036;-82
2023/01/22 07:39:57;;;;;;;4.35;3.78;;;;;;;-0.67;98.02;99951.81;5057849;28;20491;-82
2023/01/22 07:42:22;;;;;;;6.18;4.38;;;;;;;-0.60;95.81;99958.94;5049638;28;20056;-83
2023/01/22 07:44:48;;;;;;;4.63;3.95;;;;;;;-1.07;96.76;99952.25;5063111;28;20135;-82
2023/01/22 07:47:13;;;;;;;4.28;3.47;;;;;;;-0.91;96.76;99966.34;5069883;28;20055;-82
2023/01/22 07:49:38;;;;;;;5.40;3.88;;;;;;;-1.00;96.91;99967.22;5044741;28;20048;-81
2023/01/22 07:52:04;;;;;;;4.55;3.60;;;;;;;-1.28;98.24;99959.50;5040555;28;20040;-82
2023/01/22 07:54:31;;;;;;;4.60;4.20;;;;;;;-1.38;98.54;99962.19;5043933;28;20028;-82
2023/01/22 07:56:56;;;;;;;5.45;4.35;;;;;;;-0.87;98.37;99959.81;5060013;28;20054;-82
2023/01/22 07:59:21;;;;;;;5.38;4.15;;;;;;;-1.16;97.67;99948.72;5060253;28;20053;-82
2023/01/22 08:01:47;;;;;;;7.57;5.45;;;;;;;-1.34;98.04;99942.59;5058816;28;20033;-82
2023/01/22 08:04:12;;;;;;;4.93;4.20;;;;;;;-0.62;96.55;99958.25;5035112;28;20363;-82
2023/01/22 08:06:37;;;;;;;4.25;3.58;;;;;;;-1.16;97.25;99943.47;5028718;28;20043;-82
2023/01/22 08:09:05;;;;;;;4.82;4.43;;;;;;;-1.04;97.30;99959.78;5043867;28;20116;-82
2023/01/22 08:11:30;;;;;;;3.40;3.10;;;;;;;-1.17;97.62;99948.84;5062803;28;20032;-83
2023/01/22 08:13:55;;;;;;;4.82;3.88;;;;;;;-1.27;98.46;99967.25;5047603;28;20119;-82
2023/01/22 08:16:21;;;;;;;4.50;3.75;;;;;;;-1.27;98.20;99966.41;5066075;28;20067;-82
2023/01/22 08:18:46;;;;;;;5.20;3.90;;;;;;;-1.27;99.23;99951.53;5039052;28;20098;-82
2023/01/22 08:21:11;;;;;;;3.88;3.50;;;;;;;-1.32;98.61;99963.41;5066270;28;20032;-82
2023/01/22 08:23:37;;;;;;;6.05;4.25;;;;;;;-1.33;98.36;99965.19;5044113;28;20036;-83
2023/01/22 08:26:03;;;;;;;5.93;3.95;;;;;;;-1.21;98.35;99976.31;5048410;28;20163;-82
2023/01/22 08:28:30;;;;;;;5.80;3.72;;;;;;;-1.03;98.12;99974.56;5047339;28;20044;-83
2023/01/22 08:31:00;;;;;;;8.15;5.03;;;;;;;-1.12;98.36;99970.19;5042211;28;20119;-82
2023/01/22 08:33:30;;;;;;;4.68;3.92;;;;;;;-0.66;96.14;99967.41;5053653;28;20569;-83
2023/01/22 08:35:55;;;;;;;5.07;4.10;;;;;;;-0.83;95.29;99986.56;5065072;28;20028;-83
2023/01/22 08:38:21;;;;;;;5.45;4.00;;;;;;;-0.66;96.40;99987.53;5053981;28;20086;-83
2023/01/22 08:40:50;;;;;;;5.53;3.10;;;;;;;-0.35;95.31;99988.81;5051797;28;20123;-83
2023/01/22 08:43:16;;;;;;;4.70;3.85;;;;;;;-0.32;94.55;99985.88;5037412;28;20676;-83
2023/01/22 08:45:43;;;;;;;6.82;3.60;;;;;;;-0.69;94.63;99978.19;5051907;28;20024;-83
2023/01/22 08:48:09;;;;;;;5.38;4.20;;;;;;;-0.66;95.44;99983.13;5064758;28;20123;-83
2023/01/22 08:50:34;;;;;;;4.82;4.03;;;;;;;-1.08;95.40;99992.50;5009383;28;20107;-83
2023/01/22 08:53:00;;;;;;;4.95;4.43;;;;;;;-0.87;96.74;99990.44;5030396;28;20035;-82
2023/01/22 08:55:28;;;;;;;4.68;4.20;;;;;;;-0.91;95.85;99989.09;5055442;28;20035;-83
2023/01/22 08:57:57;;;;;;;6.28;4.10;;;;;;;-1.17;96.38;99994.19;5037889;28;20048;-83
2023/01/22 09:00:23;;;;;;;7.90;6.45;;;;;;;-1.04;97.72;100010.41;5061458;28;20123;-83
2023/01/22 09:02:48;;;;;;;9.00;4.97;;;;;;;-0.83;96.35;100012.78;5039947;28;20482;-82
2023/01/22 09:05:14;;;;;;;4.72;4.10;;;;;;;-0.09;95.65;100008.06;5062937;28;20031;-82
2023/01/22 09:07:40;;;;;;;5.47;4.00;;;;;;;-0.18;94.01;100001.09;5038195;28;20040;-83
2023/01/22 09:10:07;;;;;;;4.78;3.72;;;;;;;-0.58;94.06;99996.31;5045119;28;20032;-82
2023/01/22 09:12:35;;;;;;;6.45;4.60;;;;;;;-0.70;95.63;100010.63;5054733;28;20132;-83
2023/01/22 09:15:01;;;;;;;7.75;5.15;;;;;;;-0.52;95.27;100000.13;5041895;28;20233;-82
2023/01/22 09:17:27;;;;;;;5.18;4.68;;;;;;;-0.83;95.14;100015.41;5028891;28;21421;-82
2023/01/22 09:19:52;;;;;;;6.32;4.97;;;;;;;-0.63;95.61;99989.88;5045515;28;20039;-82
2023/01/22 09:22:19;;;;;;;8.50;6.30;;;;;;;-0.88;97.00;100015.00;5047344;28;20516;-83
2023/01/22 09:24:44;;;;;;;8.38;5.75;;;;;;;-0.90;96.48;100006.47;5032870;28;20033;-83
2023/01/22 09:27:10;;;;;;;7.65;6.03;;;;;;;-0.91;96.15;99997.78;5058305;28;20550;-82
2023/01/22 09:29:36;;;;;;;7.90;5.93;;;;;;;-0.64;96.83;100012.63;5047015;28;20035;-82
2023/01/22 09:32:01;;;;;;;8.93;6.50;;;;;;;-0.44;95.63;100022.03;5047214;28;20464;-82
2023/01/22 09:34:27;;;;;;;18.50;16.60;;;;;;;-0.50;95.32;100024.41;5037733;28;20079;-82
2023/01/22 09:36:52;;;;;;;11.27;7.38;;;;;;;-0.86;96.42;100020.91;5031246;28;20081;-81
2023/01/22 09:39:17;;;;;;;10.00;7.45;;;;;;;-0.41;96.29;100029.56;5040021;28;20064;-82
2023/01/22 09:41:48;;;;;;;9.40;6.40;;;;;;;-0.80;96.21;100029.00;5043279;28;20078;-82
2023/01/22 09:44:23;;;;;;;11.35;7.90;;;;;;;-0.95;96.45;100038.34;5031895;28;20499;-81
2023/01/22 09:46:54;;;;;;;11.25;8.45;;;;;;;-0.71;97.91;100044.81;5046667;28;20119;-82
2023/01/22 09:49:28;;;;;;;10.75;8.73;;;;;;;-0.49;95.94;100047.84;5056749;28;20575;-82
2023/01/22 09:51:56;;;;;;;11.00;7.90;;;;;;;-0.81;96.77;100047.53;5024336;28;20493;-81
2023/01/22 09:54:23;;;;;;;13.90;10.05;;;;;;;-0.56;97.13;100033.69;5042930;28;20036;-82
2023/01/22 09:56:52;;;;;;;42.25;15.90;;;;;;;-0.79;96.77;100035.09;5042067;28;20024;-82
2023/01/22 09:59:25;;;;;;;33.22;14.25;;;;;;;-0.85;96.70;100054.00;5060290;28;20051;-81
2023/01/22 10:01:56;;;;;;;21.00;10.02;;;;;;;-0.29;95.55;100041.50;5041942;28;20024;-82
2023/01/22 10:04:36;;;;;;;14.45;9.07;;;;;;;-0.27;96.71;100042.19;5033960;28;20033;-81
2023/01/22 10:07:09;;;;;;;11.82;7.38;;;;;;;-0.68;95.78;100055.03;5060711;28;20036;-82
2023/01/22 10:09:38;;;;;;;10.35;7.93;;;;;;;-0.80;95.82;100049.16;5047887;28;20029;-82
2023/01/22 10:12:12;;;;;;;11.23;7.30;;;;;;;-0.99;96.18;100039.63;5039693;28;20024;-82
2023/01/22 10:14:38;;;;;;;15.60;7.93;;;;;;;-0.27;96.30;100057.09;5055632;28;20127;-82
2023/01/22 10:17:09;;;;;;;10.57;7.63;;;;;;;-0.58;96.23;100063.63;5017383;28;20041;-82
2023/01/22 10:19:45;;;;;;;12.27;7.32;;;;;;;-0.18;95.71;100035.19;5046038;28;20454;-81
2023/01/22 10:22:19;;;;;;;10.20;7.20;;;;;;;-0.04;94.27;100045.97;5035522;28;20477;-81
2023/01/22 10:24:44;;;;;;;10.38;6.97;;;;;;;-0.42;93.90;100050.72;5057049;28;20020;-82
2023/01/22 10:27:12;;;;;;;10.65;6.88;;;;;;;-0.77;95.82;100054.94;5055572;28;20032;-82
2023/01/22 10:29:38;;;;;;;13.55;8.82;;;;;;;-0.70;96.95;100047.31;5041601;28;20151;-83
2023/01/22 10:32:23;;;;;;;11.20;7.35;;;;;;;-0.49;96.15;100053.09;5054150;28;20122;-82
2023/01/22 10:34:58;;;;;;;11.20;8.73;;;;;;;-0.41;95.69;100047.09;5032683;28;20033;-82
2023/01/22 10:37:23;;;;;;;15.05;9.10;;;;;;;-0.64;96.39;100048.50;5055864;28;20093;-82
2023/01/22 10:39:51;;;;;;;16.00;10.25;;;;;;;-0.29;95.86;100059.03;5029098;28;20485;-83
2023/01/22 10:42:21;;;;;;;12.70;8.25;;;;;;;-0.47;95.53;100055.56;5036112;28;20115;-83
2023/01/22 10:44:47;;;;;;;15.27;9.00;;;;;;;-0.59;95.76;100057.56;5035385;28;20028;-83
2023/01/22 10:47:22;;;;;;;13.20;8.27;;;;;;;-0.07;96.31;100055.97;5036905;28;20476;-82
2023/01/22 10:49:59;;;;;;;12.25;7.80;;;;;;;-0.35;93.91;100052.56;5052831;28;20265;-83
2023/01/22 10:52:39;;;;;;;13.15;8.35;;;;;;;-0.62;95.76;100062.28;5042145;28;20135;-83
2023/01/22 10:55:06;;;;;;;11.43;7.47;;;;;;;-0.07;96.08;100054.13;5051482;28;20384;-83
2023/01/22 10:57:35;;;;;;;15.00;8.32;;;;;;;-0.37;96.10;100061.59;5041275;28;20520;-82
2023/01/22 11:00:06;;;;;;;11.27;7.47;;;;;;;0.12;94.68;100061.03;5063571;28;20744;-83
2023/01/22 11:02:34;;;;;;;53.55;21.42;;;;;;;-0.43;95.59;100052.50;5043472;28;20575;-83
2023/01/22 11:05:13;;;;;;;31.30;16.83;;;;;;;-0.70;96.24;100049.94;5054774;28;20017;-83
2023/01/22 11:07:39;;;;;;;13.73;8.93;;;;;;;0.00;94.25;100034.19;5041826;28;20371;-84
2023/01/22 11:10:44;;;;;;;16.52;10.65;;;;;;;-0.02;94.10;100057.16;5052216;28;20314;-83
2023/01/22 11:13:18;;;;;;;15.10;10.10;;;;;;;-0.34;95.26;100062.09;5056838;28;20480;-83
2023/01/22 11:16:09;;;;;;;14.65;9.80;;;;;;;-0.43;95.49;100055.13;5056573;28;20020;-84
2023/01/22 11:18:37;;;;;;;15.43;11.57;;;;;;;0.28;94.32;100061.16;5042825;28;20697;-83
2023/01/22 11:21:15;;;;;;;13.27;8.55;;;;;;;0.53;91.74;100044.59;5069274;28;20447;-84
2023/01/22 11:23:52;;;;;;;19.63;12.80;;;;;;;0.49;91.21;100039.78;5037080;28;20062;-83
2023/01/22 11:26:39;;;;;;;26.33;12.95;;;;;;;0.44;91.84;100063.88;5038343;28;20059;-82
2023/01/22 11:29:33;;;;;;;29.15;14.40;;;;;;;0.38;92.69;100064.50;5038286;28;20036;-83
2023/01/22 11:32:04;;;;;;;29.17;15.07;;;;;;;0.26;92.42;100064.91;5075322;28;20027;-83